Language selection

Weather shortcuts

Atlantic - Newfoundland: Past 24 Hour Conditions

 

Charlottetown Airport

01:00 PM ADT 20 June 2024
Disclaimer

This table is a summary of hourly weather conditions for the past 24 hours.
Please note that these observations might not always be representative of weather conditions over their associated marine area.

Date / Time
(ADT)
Wind(knots) Conditions Visibility(km) Pressure(kPa) Air tempC) Relative humidity(%) Dew pointC) Humidex
20 June 2024
13:00 W 10 Mostly Cloudy 24 101.6 30 62 22 40
12:00 W 9 gusts 17 Mostly Cloudy 24 101.6 30 63 23 40
11:00 WSW 8 gusts 16 Mostly Cloudy 24 101.6 29 68 22 38
10:00 WSW 10 gusts 17 Mostly Cloudy 24 101.6 26 72 21 35
9:00 WSW 10 gusts 15 Mostly Cloudy 24 101.6 24 75 20 32
8:00 WSW 10 Cloudy 24 101.6 21 82 18 27
7:00 WSW 9 gusts 16 Cloudy 24 101.6 21 83 18 26
6:00 WSW 12 gusts 17 Mostly Cloudy 24 101.6 21 83 18 26
5:00 SW 11 gusts 16 Partly Cloudy 24 101.6 20 84 17 26
4:00 WSW 11 gusts 19 Partly Cloudy 24 101.6 21 80 17 26
3:00 SW 13 gusts 19 Mainly Clear 24 101.6 21 84 18 26
2:00 WSW 10 Mainly Clear 24 101.7 21 86 19 27
1:00 WSW 13 gusts 19 Mainly Clear 24 101.7 22 85 19 29
0:00 SW 12 gusts 19 Clear 24 101.8 22 86 20 30
19 June 2024
23:00 WSW 16 gusts 25 Clear 24 101.8 24 80 20 32
22:00 WSW 14 gusts 19 Mainly Clear 24 101.8 25 75 21 33
21:00 WSW 12 gusts 20 Mainly Sunny 24 101.8 26 74 21 34
20:00 WSW 11 gusts 22 Sunny 24 101.8 28 66 21 37
19:00 SW 14 gusts 21 Sunny 24 101.8 30 61 21 38
18:00 SW 12 gusts 19 Mainly Sunny 24 101.9 31 59 22 40
17:00 SW 10 gusts 16 Mainly Sunny 24 101.9 31 58 22 41
16:00 SSW 12 gusts 19 Mainly Sunny 24 102.0 31 57 22 41
15:00 SW 13 gusts 20 Mainly Sunny 24 102.0 30 59 21 39
14:00 SSW 15 Mainly Sunny 24 102.1 30 61 21 38
13:00 SW 13 gusts 20 Mostly Cloudy 24 102.1 29 62 21 37

Zoom-in to make a selection

Map of Atlantic - Newfoundland marine weather areas Banquereau - 44139 East Chedabucto Bay – 44488 West Chedabucto Bay – 44489 Blanc-Sablon Airport Cap Whittle Chevery Natashquan Airport Heath Point Îles de la Madeleine Airport Miscou Island Eskasoni (First Nations) Grand Étang Ingonish Beach North Mountain St.Paul Island J.A. Douglas McCurdy Sydney Airport Charlottetown Airport East Point North Cape Argentia Berry Hill Bonavista Burgeo Cape Race Corner Brook Daniel's Harbour Englee Ferolle Point La Scie Port aux Basques Sagona Island St. Anthony Airport St. John's Int'l Airport St. Lawrence Stephenville Airport Twillingate Winterland Branch Hill Wreckhouse Grates Cove Pool's Island Marticot Island Long Pond Cartwright Airport Mary's Harbour
Legend:
buoy Buoy
land station Land Station

Atlantic - Newfoundland Area

Another Region

Features

New Predicting and Alerting Coastal Flooding Program

Find out about coastal flooding coverage, forecasts and warnings in your region

Date modified: